메인 페이지
METAR-TAF:

METAR-TAF

공항 :

Elko, 네바다, 미국

위도: 40-49-30N, 경도: 115-47-30W, 고도: 1568m

현재 날씨관측

예보는 58분 전, 15:56시(UTC)에 발표되었습니다.
무풍
온도 3°C
습도 60%
기압 1031 hPa
시정: 16.1km
맑음

METAR: KEKO 191556Z AUTO 00000KT 10SM CLR 03/M04 A3045 RMK AO2 SLP318 T00331044

시각: 09:54 (16:54 UTC)

예보

예보는 5 시간 34분 전, 11:20시(UTC)에 발표되었습니다.
예보 대상 시간: 19일 12시부터 20일 12시까지 (UTC)
여러 방향의 바람 4kt
시정: 10km
맑음

TAF: KEKO 191120Z 1912/2012 VRB04KT P6SM SKC

4,000개 이상의 공항 관측 자료 및 예보 (METAR 및 TAF 보고).

지도상에서 검색 가능한 기상관측소가 노란 점과 빨간 점으로 표시되어 있습니다.

기상관측소 명을 보려면 표시 위로 마우스를 이동하세요.

날씨 관측과 예보를 보려면 클릭하세요.

지도 변경 : 확대하려면 엑스 표시가 있는 녹색 버튼, 축소하려면 빼기 표시가 있는 녹색 버튼, 다음 페이지의 지도를 보려면 녹색 화살표를 클릭하세요.


METAR-TAF: